createdAt,value
2018-03-21T00:02:16.506Z,59.67
2018-03-21T00:04:44.027Z,58.67
2018-03-21T00:07:11.536Z,53.80
2018-03-21T00:09:39.062Z,56.10
2018-03-21T00:12:06.569Z,61.60
2018-03-21T00:14:34.858Z,63.30
2018-03-21T00:17:02.362Z,66.43
2018-03-21T00:19:29.888Z,71.20
2018-03-21T00:21:57.389Z,73.20
2018-03-21T00:24:24.910Z,57.93
2018-03-21T00:26:52.419Z,64.63
2018-03-21T00:29:19.946Z,67.77
2018-03-21T00:31:47.455Z,54.63
2018-03-21T00:34:15.747Z,72.37
2018-03-21T00:36:43.254Z,67.60
2018-03-21T00:39:11.547Z,65.13
2018-03-21T00:41:39.050Z,68.80
2018-03-21T00:44:06.584Z,62.20
2018-03-21T00:46:34.096Z,65.07
2018-03-21T00:49:01.627Z,62.40
2018-03-21T00:51:29.129Z,68.30
2018-03-21T00:53:56.650Z,54.90
2018-03-21T00:56:24.319Z,59.43
2018-03-21T00:58:52.471Z,67.80
2018-03-21T01:01:19.976Z,62.20
2018-03-21T01:03:47.474Z,71.47
2018-03-21T01:06:14.994Z,66.30
2018-03-21T01:08:42.511Z,67.53
2018-03-21T01:11:10.031Z,58.10
2018-03-21T01:13:38.308Z,60.50
2018-03-21T01:16:06.608Z,73.17
2018-03-21T01:18:34.110Z,60.20
2018-03-21T01:21:01.631Z,67.17
2018-03-21T01:23:29.150Z,67.60
2018-03-21T01:25:57.437Z,70.43
2018-03-21T01:28:25.728Z,66.93
2018-03-21T01:30:53.243Z,69.97
2018-03-21T01:33:20.746Z,58.20
2018-03-21T01:35:48.269Z,70.63
2018-03-21T01:38:15.774Z,71.67
2018-03-21T01:40:43.295Z,73.87
2018-03-21T01:43:11.558Z,62.60
2018-03-21T01:45:39.083Z,65.63
2018-03-21T01:48:06.595Z,68.13
2018-03-21T01:50:34.882Z,64.43
2018-03-21T01:53:10.148Z,67.60
2018-03-21T01:55:37.718Z,64.63
2018-03-21T01:58:05.197Z,68.97
2018-03-21T02:00:32.739Z,67.73
2018-03-21T02:03:00.253Z,66.57
2018-03-21T02:05:28.538Z,76.10
2018-03-21T02:07:56.044Z,73.60
2018-03-21T02:10:23.566Z,70.93
2018-03-21T02:12:51.074Z,76.80
2018-03-21T02:15:18.596Z,67.93
2018-03-21T02:17:46.102Z,76.87
2018-03-21T02:20:14.390Z,74.90
2018-03-21T02:22:42.949Z,69.40
2018-03-21T02:25:10.477Z,70.13
2018-03-21T02:27:37.986Z,71.13
2018-03-21T02:30:06.298Z,77.73
2018-03-21T02:32:34.105Z,65.77
2018-03-21T02:35:01.871Z,73.80
2018-03-21T02:37:29.379Z,70.07
2018-03-21T02:39:56.903Z,73.47
2018-03-21T02:42:25.175Z,71.27
2018-03-21T02:44:53.463Z,73.97
2018-03-21T02:47:21.732Z,75.30
2018-03-21T02:49:50.021Z,74.97
2018-03-21T02:52:17.532Z,67.87
2018-03-21T02:54:45.064Z,76.73
2018-03-21T02:57:12.575Z,68.53
2018-03-21T02:59:40.862Z,73.00
2018-03-21T03:02:09.134Z,65.50
2018-03-21T03:04:37.430Z,77.07
2018-03-21T03:07:04.944Z,83.80
2018-03-21T03:09:32.469Z,73.43
2018-03-21T03:11:59.974Z,76.83
2018-03-21T03:14:27.485Z,70.97
2018-03-21T03:16:55.006Z,78.67
2018-03-21T03:19:23.279Z,89.40
2018-03-21T03:21:51.574Z,70.43
2018-03-21T03:24:19.077Z,72.47
2018-03-21T03:26:46.602Z,81.13
2018-03-21T03:29:14.102Z,74.57
2018-03-21T03:31:41.627Z,67.17
2018-03-21T03:34:09.135Z,73.37
2018-03-21T03:36:37.426Z,69.60
2018-03-21T03:39:05.694Z,71.93
2018-03-21T03:41:33.987Z,71.80
2018-03-21T03:44:01.491Z,65.80
2018-03-21T03:46:29.011Z,59.93
2018-03-21T03:48:56.527Z,61.77
2018-03-21T03:51:24.050Z,74.60
2018-03-21T03:53:57.328Z,61.33
2018-03-21T03:56:24.855Z,56.73
2018-03-21T03:58:53.138Z,63.03
2018-03-21T04:01:21.430Z,55.07
2018-03-21T04:03:48.940Z,57.60
2018-03-21T04:06:16.470Z,60.90
2018-03-21T04:08:43.974Z,58.57
2018-03-21T04:11:12.546Z,68.70
2018-03-21T04:13:40.056Z,64.57
2018-03-21T04:16:07.580Z,66.10
2018-03-21T04:18:35.857Z,61.90
2018-03-21T04:21:04.982Z,60.07
2018-03-21T04:23:32.495Z,68.10
2018-03-21T04:26:00.023Z,61.07
2018-03-21T04:28:27.536Z,62.97
2018-03-21T04:30:55.827Z,72.10
2018-03-21T04:33:23.334Z,70.10
2018-03-21T04:35:50.851Z,54.90
2018-03-21T04:38:18.358Z,57.23
2018-03-21T04:40:45.882Z,61.80
2018-03-21T04:43:13.390Z,59.33
2018-03-21T04:45:42.028Z,63.00
2018-03-21T04:48:09.539Z,63.87
2018-03-21T04:50:37.826Z,69.00
2018-03-21T04:53:05.333Z,58.63
2018-03-21T04:55:33.630Z,71.83
2018-03-21T04:58:01.138Z,64.07
2018-03-21T05:00:28.662Z,65.07
2018-03-21T05:02:56.946Z,65.83
2018-03-21T05:05:25.238Z,61.63
2018-03-21T05:07:52.746Z,61.63
2018-03-21T05:10:20.266Z,61.13
2018-03-21T05:12:47.770Z,61.10
2018-03-21T05:15:15.299Z,56.87
2018-03-21T05:17:42.802Z,66.30
2018-03-21T05:20:11.071Z,60.67
2018-03-21T05:22:38.595Z,68.70
2018-03-21T05:25:06.099Z,70.40
2018-03-21T05:27:34.386Z,64.77
2018-03-21T05:30:01.899Z,78.63
2018-03-21T05:32:30.256Z,65.63
2018-03-21T05:34:57.760Z,60.90
2018-03-21T05:37:26.052Z,61.53
2018-03-21T05:39:54.319Z,60.53
2018-03-21T05:42:22.602Z,71.70
2018-03-21T05:44:50.870Z,70.97
2018-03-21T05:47:19.162Z,64.77
2018-03-21T05:49:46.675Z,58.60
2018-03-21T05:52:15.038Z,62.17
2018-03-21T05:54:42.550Z,66.17
2018-03-21T05:57:10.895Z,60.40
2018-03-21T05:59:38.399Z,60.23
2018-03-21T06:02:05.923Z,59.43
2018-03-21T06:04:33.450Z,50.93
2018-03-21T06:07:00.965Z,63.70
2018-03-21T06:09:28.486Z,68.13
2018-03-21T06:11:56.007Z,54.67
2018-03-21T06:14:23.510Z,68.03
2018-03-21T06:16:51.030Z,48.37
2018-03-21T06:19:18.539Z,55.53
2018-03-21T06:21:46.822Z,55.27
2018-03-21T06:24:15.094Z,54.07
2018-03-21T06:26:43.383Z,52.50
2018-03-21T06:29:10.890Z,55.33
2018-03-21T06:31:38.410Z,45.27
2018-03-21T06:34:05.918Z,55.43
2018-03-21T06:36:33.439Z,58.83
2018-03-21T06:39:00.942Z,47.10
2018-03-21T06:41:28.470Z,35.43
2018-03-21T06:43:55.974Z,40.90
2018-03-21T06:46:24.534Z,42.20
2018-03-21T06:48:52.038Z,47.80
2018-03-21T06:51:19.565Z,40.67
2018-03-21T06:53:48.239Z,40.50
2018-03-21T06:56:15.767Z,39.20
2018-03-21T06:58:43.274Z,37.70
2018-03-21T07:01:11.576Z,40.10
2018-03-21T07:03:39.087Z,34.33
2018-03-21T07:06:06.602Z,31.83
2018-03-21T07:08:34.111Z,34.73
2018-03-21T07:11:01.631Z,38.07
2018-03-21T07:13:40.947Z,33.13
2018-03-21T07:16:20.325Z,36.63
2018-03-21T07:18:47.830Z,35.97
2018-03-21T07:21:15.358Z,33.10
2018-03-21T07:23:42.859Z,30.43
2018-03-21T07:26:10.362Z,35.03
2018-03-21T07:28:37.888Z,33.83
2018-03-21T07:31:05.393Z,29.17
2018-03-21T07:33:32.911Z,28.10
2018-03-21T07:36:00.415Z,30.00
2018-03-21T07:38:28.699Z,25.87
2018-03-21T07:40:56.965Z,23.60
2018-03-21T07:43:25.244Z,24.80
2018-03-21T07:45:53.510Z,34.33
2018-03-21T07:48:21.031Z,29.70
2018-03-21T07:50:48.541Z,23.80
2018-03-21T07:53:16.080Z,21.67
2018-03-21T07:55:43.584Z,22.83
2018-03-21T07:58:11.110Z,28.17
2018-03-21T08:00:39.411Z,23.67
2018-03-21T08:03:07.683Z,29.27
2018-03-21T08:05:35.208Z,25.30
2018-03-21T08:08:02.738Z,21.73
2018-03-21T08:10:30.234Z,23.90
2018-03-21T08:12:58.515Z,26.97
2018-03-21T08:15:26.787Z,24.70
2018-03-21T08:17:55.074Z,28.60
2018-03-21T08:20:23.346Z,22.40
2018-03-21T08:22:51.646Z,23.70
2018-03-21T08:25:19.150Z,23.90
2018-03-21T08:27:46.670Z,25.47
2018-03-21T08:30:14.175Z,22.23
2018-03-21T08:32:41.699Z,19.67
2018-03-21T08:35:09.203Z,22.03
2018-03-21T08:37:37.492Z,18.43
2018-03-21T08:40:06.102Z,24.40
2018-03-21T08:42:33.623Z,20.47
2018-03-21T08:45:01.899Z,20.10
2018-03-21T08:47:30.196Z,20.37
2018-03-21T08:49:57.703Z,24.97
2018-03-21T08:52:25.227Z,23.20
2018-03-21T08:54:52.739Z,18.87
2018-03-21T08:57:20.258Z,17.10
2018-03-21T08:59:47.759Z,20.93
2018-03-21T09:02:15.278Z,18.33
2018-03-21T09:04:42.783Z,16.60
2018-03-21T09:07:11.066Z,19.00
2018-03-21T09:09:39.326Z,26.50
2018-03-21T09:12:06.843Z,16.13
2018-03-21T09:14:34.344Z,15.20
2018-03-21T09:17:02.641Z,17.40
2018-03-21T09:19:30.151Z,19.73
2018-03-21T09:21:57.666Z,18.33
2018-03-21T09:24:25.188Z,17.30
2018-03-21T09:26:52.890Z,23.50
2018-03-21T09:29:20.811Z,19.10
2018-03-21T09:31:48.316Z,20.60
2018-03-21T09:34:15.846Z,25.17
2018-03-21T09:36:44.115Z,29.00
2018-03-21T09:39:11.635Z,19.63
2018-03-21T09:41:39.138Z,20.70
2018-03-21T09:44:07.428Z,23.00
2018-03-21T09:46:34.931Z,21.30
2018-03-21T09:49:02.450Z,18.33
2018-03-21T09:51:29.955Z,21.27
2018-03-21T09:53:57.479Z,23.00
2018-03-21T09:56:24.979Z,20.83
2018-03-21T09:58:52.496Z,19.87
2018-03-21T10:01:20.011Z,23.53
2018-03-21T10:03:47.530Z,18.97
2018-03-21T10:06:15.311Z,25.80
2018-03-21T10:08:43.575Z,22.27
2018-03-21T10:11:11.085Z,19.20
2018-03-21T10:13:39.373Z,21.50
2018-03-21T10:16:06.883Z,19.57
2018-03-21T10:18:34.409Z,18.50
2018-03-21T10:21:01.916Z,21.10
2018-03-21T10:23:29.434Z,18.87
2018-03-21T10:25:56.935Z,16.73
2018-03-21T10:28:25.219Z,23.90
2018-03-21T10:30:53.483Z,20.07
2018-03-21T10:33:21.002Z,21.30
2018-03-21T10:35:48.506Z,23.43
2018-03-21T10:38:16.801Z,22.73
2018-03-21T10:40:44.307Z,22.57
2018-03-21T10:43:11.837Z,21.30
2018-03-21T10:45:39.362Z,20.60
2018-03-21T10:48:07.647Z,23.37
2018-03-21T10:50:35.918Z,22.27
2018-03-21T10:53:04.202Z,22.97
2018-03-21T10:55:31.702Z,24.50
2018-03-21T10:57:59.221Z,21.97
2018-03-21T11:00:26.718Z,21.47
2018-03-21T11:02:59.971Z,23.27
2018-03-21T11:05:27.475Z,19.27
2018-03-21T11:07:55.763Z,17.57
2018-03-21T11:10:23.275Z,18.47
2018-03-21T11:12:50.798Z,17.17
2018-03-21T11:15:19.065Z,22.13
2018-03-21T11:17:46.588Z,23.00
2018-03-21T11:20:14.086Z,24.63
2018-03-21T11:22:42.391Z,22.60
2018-03-21T11:25:09.938Z,25.67
2018-03-21T11:27:37.414Z,17.70
2018-03-21T11:30:04.943Z,18.87
2018-03-21T11:32:33.206Z,17.50
2018-03-21T11:35:00.732Z,19.47
2018-03-21T11:37:28.235Z,19.50
2018-03-21T11:39:56.522Z,23.87
2018-03-21T11:42:24.786Z,21.87
2018-03-21T11:44:53.071Z,19.07
2018-03-21T11:47:21.338Z,18.50
2018-03-21T11:49:49.622Z,21.63
2018-03-21T11:52:17.882Z,22.87
2018-03-21T11:54:46.374Z,19.13
2018-03-21T11:57:14.644Z,19.13
2018-03-21T11:59:42.158Z,20.37
2018-03-21T12:02:09.666Z,21.83
2018-03-21T12:04:38.287Z,20.80
2018-03-21T12:07:05.797Z,19.10
2018-03-21T12:09:34.096Z,24.07
2018-03-21T12:12:02.371Z,26.80
2018-03-21T12:14:30.651Z,20.20
2018-03-21T12:16:58.922Z,20.40
2018-03-21T12:19:27.206Z,19.20
2018-03-21T12:21:54.715Z,20.73
2018-03-21T12:24:22.246Z,17.30
2018-03-21T12:26:49.755Z,17.30
2018-03-21T12:29:17.274Z,18.90
2018-03-21T12:31:44.774Z,17.73
2018-03-21T12:34:13.061Z,16.47
2018-03-21T12:36:41.335Z,19.50
2018-03-21T12:39:10.002Z,15.33
2018-03-21T12:41:37.493Z,17.23
2018-03-21T12:44:05.015Z,16.63
2018-03-21T12:46:32.523Z,20.10
2018-03-21T12:49:00.038Z,18.37
2018-03-21T12:51:27.544Z,20.47
2018-03-21T12:53:55.078Z,20.97
2018-03-21T12:56:22.640Z,23.67
2018-03-21T12:58:50.116Z,20.77
2018-03-21T13:01:17.619Z,25.53
2018-03-21T13:03:45.138Z,27.57
2018-03-21T13:06:12.650Z,22.20
2018-03-21T13:08:40.939Z,23.13
2018-03-21T13:11:09.211Z,22.90
2018-03-21T13:13:37.545Z,20.53
2018-03-21T13:16:05.019Z,21.30
2018-03-21T13:18:32.549Z,20.47
2018-03-21T13:21:00.070Z,22.43
2018-03-21T13:23:28.334Z,23.23
2018-03-21T13:25:56.614Z,22.70
2018-03-21T13:28:24.888Z,24.10
2018-03-21T13:30:53.175Z,20.60
2018-03-21T13:33:20.678Z,22.40
2018-03-21T13:35:48.198Z,15.20
2018-03-21T13:38:15.707Z,18.23
2018-03-21T13:40:43.230Z,18.23
2018-03-21T13:43:11.097Z,17.50
2018-03-21T13:45:38.618Z,20.03
2018-03-21T13:48:06.882Z,20.80
2018-03-21T13:50:34.396Z,16.60
2018-03-21T13:53:01.900Z,15.93
2018-03-21T13:55:29.414Z,14.07
2018-03-21T13:57:56.915Z,18.00
2018-03-21T14:00:25.211Z,19.07
2018-03-21T14:02:53.477Z,17.57
2018-03-21T14:05:21.770Z,18.50
2018-03-21T14:07:49.282Z,16.03
2018-03-21T14:10:16.803Z,22.63
2018-03-21T14:12:44.302Z,14.97
2018-03-21T14:15:11.822Z,20.77
2018-03-21T14:17:39.318Z,18.10
2018-03-21T14:20:06.832Z,19.10
2018-03-21T14:22:34.358Z,19.40
2018-03-21T14:25:02.646Z,17.33
2018-03-21T14:27:30.149Z,16.53
2018-03-21T14:29:57.671Z,21.03
2018-03-21T14:32:25.166Z,14.70
2018-03-21T14:34:52.686Z,15.73
2018-03-21T14:37:20.211Z,14.63
2018-03-21T14:39:48.508Z,18.43
2018-03-21T14:42:16.782Z,21.07
2018-03-21T14:44:45.063Z,17.40
2018-03-21T14:47:13.321Z,16.63
2018-03-21T14:49:40.835Z,16.37
2018-03-21T14:52:08.334Z,22.33
2018-03-21T14:54:35.859Z,21.33
2018-03-21T14:57:03.359Z,16.80
2018-03-21T14:59:31.659Z,15.93
2018-03-21T15:01:59.163Z,15.23
2018-03-21T15:04:26.674Z,18.73
2018-03-21T15:06:54.178Z,14.50
2018-03-21T15:09:21.707Z,17.57
2018-03-21T15:11:49.214Z,15.17
2018-03-21T15:14:17.484Z,15.57
2018-03-21T15:16:45.007Z,15.57
2018-03-21T15:19:12.526Z,13.03
2018-03-21T15:21:40.817Z,14.73
2018-03-21T15:24:08.324Z,16.53
2018-03-21T15:26:36.098Z,13.50
2018-03-21T15:29:03.603Z,14.37
2018-03-21T15:31:31.118Z,17.20
2018-03-21T15:33:58.624Z,14.97
2018-03-21T15:36:26.140Z,12.80
2018-03-21T15:38:53.642Z,14.80
2018-03-21T15:41:21.165Z,12.73
2018-03-21T15:43:49.435Z,12.03
2018-03-21T15:46:17.723Z,13.77
2018-03-21T15:48:45.995Z,15.80
2018-03-21T15:51:14.346Z,16.13
2018-03-21T15:53:41.791Z,15.10
2018-03-21T15:56:09.303Z,13.53
2018-03-21T15:58:36.802Z,18.13
2018-03-21T16:01:04.318Z,16.10
2018-03-21T16:03:31.824Z,16.00
2018-03-21T16:05:59.354Z,14.10
2018-03-21T16:08:26.866Z,15.77
2018-03-21T16:10:54.383Z,17.17
2018-03-21T16:13:21.878Z,13.10
2018-03-21T16:15:49.414Z,9.53
2018-03-21T16:18:16.928Z,12.03
2018-03-21T16:20:44.451Z,14.23
2018-03-21T16:23:11.950Z,14.30
2018-03-21T16:25:39.468Z,11.37
2018-03-21T16:28:06.962Z,15.47
2018-03-21T16:30:34.487Z,18.30
2018-03-21T16:33:01.995Z,14.60
2018-03-21T16:35:29.566Z,13.37
2018-03-21T16:37:57.042Z,11.30
2018-03-21T16:40:24.563Z,15.00
2018-03-21T16:42:52.067Z,20.37
2018-03-21T16:45:19.602Z,14.43
2018-03-21T16:47:47.103Z,14.20
2018-03-21T16:50:15.387Z,11.40
2018-03-21T16:52:43.702Z,14.50
2018-03-21T16:55:11.190Z,19.73
2018-03-21T16:57:38.694Z,14.57
2018-03-21T17:00:06.223Z,14.73
2018-03-21T17:02:34.498Z,13.83
2018-03-21T17:05:02.785Z,16.27
2018-03-21T17:07:31.061Z,19.53
2018-03-21T17:09:59.350Z,20.47
2018-03-21T17:12:26.863Z,20.20
2018-03-21T17:14:54.362Z,15.13
2018-03-21T17:17:22.648Z,16.27
2018-03-21T17:19:50.155Z,14.73
2018-03-21T17:22:17.684Z,15.63
2018-03-21T17:24:45.186Z,9.97
2018-03-21T17:27:12.716Z,15.30
2018-03-21T17:29:40.232Z,34.73
2018-03-21T17:32:07.763Z,156.60
2018-03-21T17:34:35.290Z,159.00
2018-03-21T17:37:02.820Z,41.30
2018-03-21T17:39:30.415Z,21.23
2018-03-21T17:41:57.939Z,13.57
2018-03-21T17:44:25.438Z,15.70
2018-03-21T17:46:52.961Z,19.83
2018-03-21T17:49:20.468Z,13.97
2018-03-21T17:51:48.767Z,14.80
2018-03-21T17:54:17.044Z,18.17
2018-03-21T17:56:45.362Z,19.60
2018-03-21T17:59:12.871Z,24.70
2018-03-21T18:01:41.162Z,23.93
2018-03-21T18:04:08.675Z,25.90
2018-03-21T18:06:36.203Z,21.23
2018-03-21T18:09:03.706Z,22.53
2018-03-21T18:11:31.236Z,31.73
2018-03-21T18:13:58.739Z,28.17
2018-03-21T18:16:27.031Z,31.67
2018-03-21T18:18:54.534Z,64.50
2018-03-21T18:21:22.063Z,30.53
2018-03-21T18:23:49.570Z,22.93
2018-03-21T18:26:17.091Z,23.20
2018-03-21T18:28:44.594Z,21.77
2018-03-21T18:31:12.118Z,16.00
2018-03-21T18:33:39.618Z,16.57
2018-03-21T18:36:07.903Z,19.33
2018-03-21T18:38:36.174Z,22.10
2018-03-21T18:41:04.461Z,30.33
2018-03-21T18:43:31.974Z,29.20
2018-03-21T18:45:59.497Z,23.30
2018-03-21T18:48:27.007Z,23.93
2018-03-21T18:50:54.539Z,21.50
2018-03-21T18:53:22.039Z,26.67
2018-03-21T18:55:50.323Z,23.33
2018-03-21T18:58:18.599Z,21.73
2018-03-21T19:00:46.887Z,36.50
2018-03-21T19:03:14.435Z,44.07
2018-03-21T19:05:41.939Z,42.80
2018-03-21T19:08:09.826Z,49.87
2018-03-21T19:10:37.355Z,50.70
2018-03-21T19:13:04.859Z,54.03
2018-03-21T19:15:33.135Z,54.10
2018-03-21T19:18:01.420Z,42.63
2018-03-21T19:20:29.694Z,28.40
2018-03-21T19:22:57.986Z,24.57
2018-03-21T19:25:25.493Z,31.17
2018-03-21T19:27:53.019Z,21.73
2018-03-21T19:30:20.527Z,18.03
2018-03-21T19:32:48.055Z,24.57
2018-03-21T19:35:15.568Z,22.17
2018-03-21T19:37:43.855Z,28.50
2018-03-21T19:40:11.368Z,31.27
2018-03-21T19:42:38.891Z,21.73
2018-03-21T19:45:06.394Z,50.43
2018-03-21T19:47:33.923Z,72.53
2018-03-21T19:50:01.426Z,31.30
2018-03-21T19:52:29.710Z,35.00
2018-03-21T19:54:57.985Z,29.60
2018-03-21T19:57:26.285Z,36.50
2018-03-21T19:59:53.800Z,36.87
2018-03-21T20:02:21.325Z,39.20
2018-03-21T20:04:48.838Z,31.17
2018-03-21T20:07:17.126Z,28.20
2018-03-21T20:09:44.639Z,27.53
2018-03-21T20:12:15.907Z,19.13
2018-03-21T20:14:46.776Z,28.87
2018-03-21T20:17:14.483Z,31.73
2018-03-21T20:19:46.665Z,50.40
2018-03-21T20:22:17.589Z,32.90
2018-03-21T20:24:48.196Z,33.50
2018-03-21T20:27:21.850Z,30.80
2018-03-21T20:29:52.150Z,32.17
2018-03-21T20:32:25.132Z,30.93
2018-03-21T20:34:54.813Z,33.10
2018-03-21T20:37:22.470Z,35.77
2018-03-21T20:39:49.979Z,24.93
2018-03-21T20:42:18.273Z,33.33
2018-03-21T20:44:46.542Z,35.83
2018-03-21T20:47:14.838Z,38.87
2018-03-21T20:49:42.351Z,38.50
2018-03-21T20:52:09.870Z,43.33
2018-03-21T20:54:37.374Z,48.50
2018-03-21T20:57:04.899Z,44.80
2018-03-21T20:59:32.403Z,54.70
2018-03-21T21:02:00.686Z,47.93
2018-03-21T21:04:28.966Z,45.43
2018-03-21T21:06:57.255Z,42.87
2018-03-21T21:09:24.767Z,44.23
2018-03-21T21:11:52.295Z,45.57
2018-03-21T21:14:19.795Z,40.27
2018-03-21T21:16:47.319Z,39.37
2018-03-21T21:19:14.824Z,52.00
2018-03-21T21:21:43.110Z,45.30
2018-03-21T21:24:10.619Z,47.07
2018-03-21T21:26:38.146Z,48.77
2018-03-21T21:29:05.658Z,55.20
2018-03-21T21:31:33.183Z,43.30
2018-03-21T21:34:00.689Z,40.57
2018-03-21T21:39:03.586Z,35.90
2018-03-21T21:41:31.878Z,34.20
2018-03-21T21:43:59.383Z,41.57
2018-03-21T21:46:26.905Z,44.93
2018-03-21T21:48:54.420Z,37.93
2018-03-21T21:51:22.001Z,44.13
2018-03-21T21:53:49.470Z,38.23
2018-03-21T21:56:16.974Z,39.53
2018-03-21T21:58:44.503Z,43.03
2018-03-21T22:01:12.003Z,46.40
2018-03-21T22:03:39.527Z,45.63
2018-03-21T22:06:07.062Z,40.17
2018-03-21T22:08:34.587Z,37.20
2018-03-21T22:11:02.094Z,52.83
2018-03-21T22:13:29.626Z,48.60
2018-03-21T22:15:57.895Z,52.93
2018-03-21T22:18:26.182Z,50.97
2018-03-21T22:20:54.451Z,52.20
2018-03-21T22:23:22.733Z,53.13
2018-03-21T22:25:51.005Z,57.53
2018-03-21T22:28:19.287Z,55.83
2018-03-21T22:30:47.300Z,51.57
2018-03-21T22:33:15.631Z,51.70
2018-03-21T22:35:43.948Z,52.07
2018-03-21T22:38:11.480Z,51.80
2018-03-21T22:40:39.037Z,55.87
2018-03-21T22:43:06.571Z,50.97
2018-03-21T22:45:34.840Z,50.20
2018-03-21T22:48:02.392Z,51.57
2018-03-21T22:50:29.890Z,43.93
2018-03-21T22:52:57.423Z,38.23
2018-03-21T22:55:25.691Z,47.73
2018-03-21T22:57:53.994Z,45.53
2018-03-21T23:00:21.500Z,48.10
2018-03-21T23:02:48.998Z,45.63
2018-03-21T23:05:17.286Z,47.60
2018-03-21T23:07:44.798Z,53.20
2018-03-21T23:10:13.087Z,45.17
2018-03-21T23:12:40.591Z,45.20
2018-03-21T23:15:08.119Z,48.97
2018-03-21T23:17:36.403Z,48.23
2018-03-21T23:20:04.766Z,48.67
2018-03-21T23:22:32.231Z,52.40
2018-03-21T23:25:00.524Z,42.87
2018-03-21T23:27:28.036Z,42.70
2018-03-21T23:29:55.555Z,46.33
2018-03-21T23:32:23.051Z,49.30
2018-03-21T23:34:50.588Z,56.00
2018-03-21T23:37:18.105Z,40.80
2018-03-21T23:39:45.644Z,48.50
2018-03-21T23:42:13.156Z,52.47
2018-03-21T23:44:40.695Z,48.90
2018-03-21T23:47:08.210Z,47.63
2018-03-21T23:49:35.744Z,49.60
2018-03-21T23:52:03.263Z,43.70
2018-03-21T23:54:30.820Z,52.97
2018-03-21T23:56:59.091Z,38.70
2018-03-21T23:59:27.363Z,51.70
